Time;durP1;ratioP1;P1;durP2;ratioP2;P2;SDS_P1;SDS_P2;PMS_P1;PMS_P2;Temp;Humidity;BMP_temperature;BMP_pressure;BME280_temperature;BME280_humidity;BME280_pressure;Samples;Min_cycle;Max_cycle;Signal;HPM_P1;HPM_P2
2023/05/11 00:00:12;;;;;;;17.33;9.27;;;;;;;;;;5036429;28;20055;-69
2023/05/11 00:02:37;;;;;;;15.07;9.37;;;;;;;;;;5036251;28;20025;-69
2023/05/11 00:05:03;;;;;;;14.53;9.27;;;;;;;;;;5034647;28;20041;-69
2023/05/11 00:07:28;;;;;;;16.57;9.37;;;;;;;;;;5035382;28;20076;-69
2023/05/11 00:09:53;;;;;;;16.97;9.77;;;;;;;;;;5035941;28;20057;-69
2023/05/11 00:12:18;;;;;;;15.90;9.60;;;;;;;;;;5036182;28;20100;-69
2023/05/11 00:14:44;;;;;;;14.50;8.73;;;;;;;;;;5035828;28;20388;-69
2023/05/11 00:17:10;;;;;;;15.73;9.40;;;;;;;;;;5034805;28;20023;-69
2023/05/11 00:19:36;;;;;;;15.27;9.38;;;;;;;;;;5034829;28;20025;-69
2023/05/11 00:22:01;;;;;;;14.27;9.07;;;;;;;;;;5035199;28;20021;-69
2023/05/11 00:24:26;;;;;;;16.03;9.50;;;;;;;;;;5035447;28;20540;-69
2023/05/11 00:26:51;;;;;;;17.23;9.60;;;;;;;;;;5035965;28;20024;-69
2023/05/11 00:29:17;;;;;;;16.80;10.00;;;;;;;;;;5034746;28;20461;-69
2023/05/11 00:31:46;;;;;;;16.33;9.97;;;;;;;;;;5035423;28;20026;-69
2023/05/11 00:34:11;;;;;;;15.63;9.30;;;;;;;;;;5033781;28;20022;-69
2023/05/11 00:36:38;;;;;;;13.37;8.83;;;;;;;;;;5035542;28;20028;-69
2023/05/11 00:39:03;;;;;;;15.10;9.03;;;;;;;;;;5035656;28;20367;-69
2023/05/11 00:41:29;;;;;;;17.87;9.57;;;;;;;;;;5040915;28;20024;-69
2023/05/11 00:43:54;;;;;;;17.37;10.17;;;;;;;;;;5037288;28;20013;-69
2023/05/11 00:46:19;;;;;;;16.57;10.33;;;;;;;;;;5035233;28;20021;-69
2023/05/11 00:48:45;;;;;;;18.87;10.17;;;;;;;;;;5035188;28;20018;-69
2023/05/11 00:51:11;;;;;;;19.47;10.50;;;;;;;;;;5034131;28;20101;-69
2023/05/11 00:53:36;;;;;;;19.50;10.40;;;;;;;;;;5035527;28;20025;-69
2023/05/11 00:56:02;;;;;;;19.60;10.63;;;;;;;;;;5033879;28;20493;-69
2023/05/11 00:58:28;;;;;;;16.60;10.37;;;;;;;;;;5034933;28;20033;-69
2023/05/11 01:03:56;;;;;;;19.47;11.33;;;;;;;;;;5029915;28;20056;-69
2023/05/11 01:06:45;;;;;;;19.60;11.47;;;;;;;;;;5027494;28;20446;-69
2023/05/11 01:09:49;;;;;;;16.93;10.40;;;;;;;;;;5015021;28;20033;-69
2023/05/11 01:12:22;;;;;;;17.73;10.83;;;;;;;;;;4973941;28;20126;-69
2023/05/11 01:14:53;;;;;;;19.80;10.97;;;;;;;;;;4973840;28;20019;-69
2023/05/11 01:17:22;;;;;;;20.63;11.40;;;;;;;;;;4972913;28;20042;-68
2023/05/11 01:19:52;;;;;;;23.07;11.90;;;;;;;;;;4973587;28;20042;-69
2023/05/11 01:22:20;;;;;;;18.40;10.60;;;;;;;;;;4973443;28;20027;-69
2023/05/11 01:25:04;;;;;;;22.47;11.67;;;;;;;;;;4973608;28;20438;-69
2023/05/11 01:27:49;;;;;;;21.00;11.20;;;;;;;;;;4972506;28;20078;-69
2023/05/11 01:30:34;;;;;;;24.47;12.23;;;;;;;;;;4973667;28;20110;-69
2023/05/11 01:33:04;;;;;;;21.60;12.10;;;;;;;;;;4972337;28;20022;-68
2023/05/11 01:35:31;;;;;;;19.27;11.40;;;;;;;;;;4972461;28;20034;-69
2023/05/11 01:37:58;;;;;;;21.10;11.43;;;;;;;;;;4982166;28;20080;-69
2023/05/11 01:40:26;;;;;;;21.40;11.73;;;;;;;;;;4983788;28;20105;-68
2023/05/11 01:42:58;;;;;;;25.17;11.97;;;;;;;;;;5000909;28;20034;-69
2023/05/11 01:45:25;;;;;;;21.20;11.80;;;;;;;;;;5031569;28;20025;-69
2023/05/11 01:47:51;;;;;;;21.07;10.83;;;;;;;;;;5034004;28;20112;-69
2023/05/11 01:50:16;;;;;;;20.67;11.80;;;;;;;;;;5034242;28;20052;-69
2023/05/11 01:52:42;;;;;;;21.20;12.37;;;;;;;;;;5033104;28;20108;-69
2023/05/11 01:55:08;;;;;;;20.00;11.90;;;;;;;;;;5034255;28;20462;-69
2023/05/11 01:57:35;;;;;;;21.70;12.00;;;;;;;;;;5033805;28;20115;-69
2023/05/11 02:00:01;;;;;;;23.03;12.47;;;;;;;;;;5033768;28;20040;-69
2023/05/11 02:02:27;;;;;;;22.33;12.13;;;;;;;;;;5032549;28;20032;-69
2023/05/11 02:04:53;;;;;;;23.87;13.03;;;;;;;;;;5033484;28;20379;-69
2023/05/11 02:07:19;;;;;;;22.67;12.53;;;;;;;;;;5032579;28;20032;-69
2023/05/11 02:09:44;;;;;;;23.60;12.40;;;;;;;;;;5033326;28;20022;-69
2023/05/11 02:12:11;;;;;;;23.37;12.80;;;;;;;;;;5047358;28;20039;-69
2023/05/11 02:14:36;;;;;;;24.70;12.17;;;;;;;;;;5035666;28;20029;-69
2023/05/11 02:17:02;;;;;;;28.87;13.90;;;;;;;;;;5033623;28;20025;-69
2023/05/11 02:19:32;;;;;;;23.70;12.80;;;;;;;;;;5033744;28;20091;-69
2023/05/11 02:21:58;;;;;;;23.07;12.83;;;;;;;;;;5032644;28;20028;-70
2023/05/11 02:24:25;;;;;;;25.13;12.73;;;;;;;;;;5033725;28;20029;-69
2023/05/11 02:26:50;;;;;;;26.40;12.83;;;;;;;;;;5033823;28;20018;-63
2023/05/11 02:29:16;;;;;;;28.13;13.97;;;;;;;;;;5033452;28;20672;-63
2023/05/11 02:31:45;;;;;;;30.73;14.77;;;;;;;;;;5032570;28;20381;-64
2023/05/11 02:34:19;;;;;;;24.33;13.07;;;;;;;;;;5033602;28;20386;-64
2023/05/11 02:36:47;;;;;;;23.73;12.80;;;;;;;;;;5032326;28;20483;-63
2023/05/11 02:39:14;;;;;;;29.90;13.70;;;;;;;;;;5033317;28;20025;-63
2023/05/11 02:41:42;;;;;;;32.80;13.60;;;;;;;;;;5033470;28;20029;-63
2023/05/11 02:44:08;;;;;;;29.93;14.30;;;;;;;;;;5032014;28;20026;-64
2023/05/11 02:46:35;;;;;;;29.70;14.70;;;;;;;;;;5033206;28;20017;-63
2023/05/11 02:49:02;;;;;;;26.33;14.03;;;;;;;;;;5033157;28;20110;-63
2023/05/11 02:51:30;;;;;;;30.00;14.10;;;;;;;;;;5032281;28;20018;-63
2023/05/11 02:53:57;;;;;;;32.57;15.40;;;;;;;;;;5032492;28;20386;-63
2023/05/11 02:56:23;;;;;;;31.60;14.27;;;;;;;;;;5033059;28;20025;-63
2023/05/11 02:58:48;;;;;;;35.13;15.40;;;;;;;;;;5032984;28;20021;-63
2023/05/11 03:01:14;;;;;;;31.30;15.00;;;;;;;;;;5032596;28;20108;-68
2023/05/11 03:03:39;;;;;;;34.33;15.97;;;;;;;;;;5031523;28;20049;-68
2023/05/11 03:06:05;;;;;;;40.00;16.93;;;;;;;;;;5032624;28;20021;-68
2023/05/11 03:08:30;;;;;;;38.50;16.20;;;;;;;;;;5031046;28;20087;-69
2023/05/11 03:10:56;;;;;;;37.10;16.90;;;;;;;;;;5033198;28;20056;-69
2023/05/11 03:13:23;;;;;;;39.67;16.87;;;;;;;;;;5032217;28;20517;-68
2023/05/11 03:15:49;;;;;;;41.80;17.70;;;;;;;;;;5036382;28;20021;-69
2023/05/11 03:18:15;;;;;;;44.67;17.57;;;;;;;;;;5036878;28;20009;-69
2023/05/11 03:20:42;;;;;;;48.37;18.80;;;;;;;;;;5037107;28;20021;-68
2023/05/11 03:23:07;;;;;;;51.83;19.23;;;;;;;;;;5035706;28;20079;-68
2023/05/11 03:25:33;;;;;;;52.13;20.40;;;;;;;;;;5037066;28;20021;-68
2023/05/11 03:27:59;;;;;;;59.07;22.87;;;;;;;;;;5036732;28;20017;-68
2023/05/11 03:30:25;;;;;;;56.53;20.93;;;;;;;;;;5036961;28;20037;-68
2023/05/11 03:32:51;;;;;;;64.30;22.80;;;;;;;;;;5035901;28;20465;-69
2023/05/11 03:35:16;;;;;;;62.60;22.67;;;;;;;;;;5036660;28;20032;-69
2023/05/11 03:37:42;;;;;;;61.80;22.37;;;;;;;;;;5035680;28;20029;-68
2023/05/11 03:40:08;;;;;;;66.03;23.73;;;;;;;;;;5036805;28;20021;-68
2023/05/11 03:42:34;;;;;;;63.30;23.77;;;;;;;;;;5035898;28;20025;-68
2023/05/11 03:45:00;;;;;;;68.30;23.50;;;;;;;;;;5034732;28;20049;-68
2023/05/11 03:47:27;;;;;;;64.13;23.77;;;;;;;;;;5036312;28;20013;-69
2023/05/11 03:49:53;;;;;;;76.53;24.23;;;;;;;;;;5035363;28;20021;-69
2023/05/11 03:52:18;;;;;;;67.97;23.50;;;;;;;;;;5035255;28;20018;-69
2023/05/11 03:54:44;;;;;;;69.63;23.77;;;;;;;;;;5036106;28;20152;-69
2023/05/11 03:57:10;;;;;;;67.67;23.43;;;;;;;;;;5036418;28;20021;-69
2023/05/11 03:59:35;;;;;;;64.57;24.00;;;;;;;;;;5035655;28;20468;-69
2023/05/11 04:02:02;;;;;;;68.93;24.10;;;;;;;;;;5036094;28;20026;-68
2023/05/11 04:04:28;;;;;;;62.20;24.30;;;;;;;;;;5033979;28;20506;-69
2023/05/11 04:06:54;;;;;;;59.73;22.60;;;;;;;;;;5036297;28;20026;-69
2023/05/11 04:09:19;;;;;;;63.63;23.60;;;;;;;;;;5034687;28;20140;-68
2023/05/11 04:11:44;;;;;;;69.77;23.47;;;;;;;;;;5035926;28;20013;-69
2023/05/11 04:14:10;;;;;;;66.03;23.93;;;;;;;;;;5035055;28;20397;-69
2023/05/11 04:16:35;;;;;;;67.27;24.70;;;;;;;;;;5035821;28;20029;-68
2023/05/11 04:19:00;;;;;;;64.17;23.83;;;;;;;;;;5033082;28;20048;-68
2023/05/11 04:21:26;;;;;;;65.00;24.20;;;;;;;;;;5035871;28;20061;-69
2023/05/11 04:23:51;;;;;;;58.93;23.73;;;;;;;;;;5034608;28;20017;-68
2023/05/11 04:26:16;;;;;;;57.87;23.27;;;;;;;;;;5035077;28;20021;-69
2023/05/11 04:28:42;;;;;;;61.83;24.57;;;;;;;;;;5035572;28;20025;-69
2023/05/11 04:31:07;;;;;;;58.43;23.47;;;;;;;;;;5035829;28;20025;-69
2023/05/11 04:33:32;;;;;;;56.73;23.83;;;;;;;;;;5033308;28;20017;-68
2023/05/11 04:35:57;;;;;;;64.50;25.03;;;;;;;;;;5035435;28;20428;-68
2023/05/11 04:38:23;;;;;;;55.60;22.43;;;;;;;;;;5034311;28;20005;-69
2023/05/11 04:40:49;;;;;;;61.03;23.30;;;;;;;;;;5035327;28;20017;-70
2023/05/11 04:43:14;;;;;;;54.80;22.93;;;;;;;;;;5034403;28;20021;-69
2023/05/11 04:45:40;;;;;;;60.33;25.03;;;;;;;;;;5034323;28;20486;-68
2023/05/11 04:48:05;;;;;;;59.00;24.07;;;;;;;;;;5034921;28;20045;-68
2023/05/11 04:50:31;;;;;;;61.20;22.87;;;;;;;;;;5034992;28;20100;-68
2023/05/11 04:52:56;;;;;;;51.50;22.57;;;;;;;;;;5034227;28;20521;-69
2023/05/11 04:55:22;;;;;;;63.57;23.77;;;;;;;;;;5034589;28;20099;-69
2023/05/11 04:57:47;;;;;;;61.83;24.27;;;;;;;;;;5033069;28;20030;-69
2023/05/11 05:00:12;;;;;;;64.03;24.37;;;;;;;;;;5033046;28;20469;-68
2023/05/11 05:02:38;;;;;;;62.93;23.50;;;;;;;;;;5033271;28;20017;-68
2023/05/11 05:05:03;;;;;;;62.80;23.87;;;;;;;;;;5033289;28;20048;-69
2023/05/11 05:07:29;;;;;;;60.43;23.97;;;;;;;;;;5033923;28;20017;-69
2023/05/11 05:09:54;;;;;;;60.33;23.70;;;;;;;;;;5034334;28;20025;-68
2023/05/11 05:12:19;;;;;;;60.00;23.17;;;;;;;;;;5034704;28;20462;-69
2023/05/11 05:14:44;;;;;;;64.40;23.77;;;;;;;;;;5034522;28;20073;-69
2023/05/11 05:17:10;;;;;;;71.23;24.83;;;;;;;;;;5034267;28;20481;-68
2023/05/11 05:19:38;;;;;;;68.10;24.47;;;;;;;;;;5034002;28;20053;-68
2023/05/11 05:22:04;;;;;;;65.20;23.57;;;;;;;;;;5034978;28;20025;-69
2023/05/11 05:24:29;;;;;;;63.00;24.40;;;;;;;;;;5033092;28;20029;-70
2023/05/11 05:26:54;;;;;;;75.93;25.20;;;;;;;;;;5033592;28;20026;-69
2023/05/11 05:29:20;;;;;;;70.20;24.73;;;;;;;;;;5034201;28;20025;-69
2023/05/11 05:31:45;;;;;;;64.20;23.37;;;;;;;;;;5033734;28;20033;-69
2023/05/11 05:34:10;;;;;;;72.50;25.70;;;;;;;;;;5034329;28;20033;-69
2023/05/11 05:36:36;;;;;;;65.87;24.07;;;;;;;;;;5033770;28;20021;-70
2023/05/11 05:39:02;;;;;;;56.67;21.23;;;;;;;;;;5032085;28;20083;-69
2023/05/11 05:41:27;;;;;;;52.67;19.57;;;;;;;;;;5034502;28;20017;-69
2023/05/11 05:43:53;;;;;;;58.67;21.63;;;;;;;;;;5032705;28;20717;-69
2023/05/11 05:46:18;;;;;;;58.10;21.63;;;;;;;;;;5033983;28;20539;-69
2023/05/11 05:48:43;;;;;;;57.20;21.53;;;;;;;;;;5033056;28;20022;-69
2023/05/11 05:51:09;;;;;;;67.90;23.83;;;;;;;;;;5033870;28;20022;-69
2023/05/11 05:53:34;;;;;;;71.10;23.97;;;;;;;;;;5032890;28;20029;-69
2023/05/11 05:55:59;;;;;;;66.83;22.73;;;;;;;;;;5034168;28;20021;-69
2023/05/11 05:58:25;;;;;;;73.27;24.17;;;;;;;;;;5033639;28;20025;-69
2023/05/11 06:00:51;;;;;;;74.97;23.60;;;;;;;;;;5033801;28;20469;-70
2023/05/11 06:03:16;;;;;;;77.83;24.27;;;;;;;;;;5033625;28;20086;-69
2023/05/11 06:05:41;;;;;;;78.73;24.00;;;;;;;;;;5033516;28;20037;-69
2023/05/11 06:08:07;;;;;;;83.53;26.37;;;;;;;;;;5033668;28;20481;-69
2023/05/11 06:10:32;;;;;;;83.50;25.77;;;;;;;;;;5033115;28;20018;-69
2023/05/11 06:12:57;;;;;;;71.70;22.57;;;;;;;;;;5033627;28;20033;-69
2023/05/11 06:15:22;;;;;;;68.77;22.10;;;;;;;;;;5047401;28;20045;-69
2023/05/11 06:17:48;;;;;;;65.00;21.77;;;;;;;;;;5043520;28;20074;-69
2023/05/11 06:20:13;;;;;;;66.87;22.20;;;;;;;;;;5032615;28;20036;-69
2023/05/11 06:22:38;;;;;;;71.03;23.47;;;;;;;;;;5033719;28;20466;-69
2023/05/11 06:25:04;;;;;;;72.83;23.87;;;;;;;;;;5032726;28;20370;-69
2023/05/11 06:27:30;;;;;;;69.97;22.67;;;;;;;;;;5033613;28;20410;-69
2023/05/11 06:29:55;;;;;;;60.33;21.37;;;;;;;;;;5032429;28;20072;-69
2023/05/11 06:32:20;;;;;;;59.37;21.03;;;;;;;;;;5031568;28;20021;-69
2023/05/11 06:34:46;;;;;;;62.43;22.17;;;;;;;;;;5033502;28;20029;-69
2023/05/11 06:37:14;;;;;;;60.77;21.10;;;;;;;;;;5033173;28;20033;-68
2023/05/11 06:39:40;;;;;;;64.63;22.60;;;;;;;;;;5032326;28;20092;-69
2023/05/11 06:42:06;;;;;;;70.87;23.20;;;;;;;;;;5031948;28;20512;-71
2023/05/11 06:44:33;;;;;;;53.53;20.20;;;;;;;;;;5032983;28;20017;-68
2023/05/11 06:46:59;;;;;;;62.27;21.47;;;;;;;;;;5033439;28;20425;-68
2023/05/11 06:49:25;;;;;;;53.50;20.00;;;;;;;;;;5033038;28;20013;-68
2023/05/11 06:51:50;;;;;;;64.90;21.47;;;;;;;;;;5032431;28;20025;-68
2023/05/11 06:54:16;;;;;;;61.13;21.17;;;;;;;;;;5032921;28;20492;-67
2023/05/11 06:56:41;;;;;;;58.33;20.43;;;;;;;;;;5031470;28;20392;-67
2023/05/11 06:59:06;;;;;;;74.87;22.37;;;;;;;;;;5032762;28;20017;-68
2023/05/11 07:01:31;;;;;;;65.33;21.33;;;;;;;;;;5033317;28;20060;-67
2023/05/11 07:03:57;;;;;;;67.00;22.43;;;;;;;;;;5031461;28;20068;-68
2023/05/11 07:06:22;;;;;;;68.60;22.23;;;;;;;;;;5032213;28;20026;-67
2023/05/11 07:08:47;;;;;;;61.47;22.00;;;;;;;;;;5032533;28;20029;-68
2023/05/11 07:11:14;;;;;;;58.77;20.03;;;;;;;;;;5032119;28;20049;-68
2023/05/11 07:13:40;;;;;;;53.87;19.97;;;;;;;;;;5033108;28;20034;-67
2023/05/11 07:16:05;;;;;;;53.42;19.40;;;;;;;;;;5033154;28;20022;-68
2023/05/11 07:18:30;;;;;;;48.90;17.93;;;;;;;;;;5051179;28;20378;-67
2023/05/11 07:20:55;;;;;;;54.97;18.93;;;;;;;;;;5040253;28;20537;-68
2023/05/11 07:23:21;;;;;;;49.37;17.67;;;;;;;;;;5032809;28;20024;-67
2023/05/11 07:25:46;;;;;;;45.87;17.37;;;;;;;;;;5031726;28;20028;-68
2023/05/11 07:28:11;;;;;;;47.57;18.80;;;;;;;;;;5031949;28;20083;-68
2023/05/11 07:30:37;;;;;;;44.80;17.75;;;;;;;;;;5032626;28;20017;-67
2023/05/11 07:33:02;;;;;;;42.67;17.00;;;;;;;;;;5031745;28;20390;-68
2023/05/11 07:35:28;;;;;;;41.35;17.60;;;;;;;;;;5032857;28;20021;-68
2023/05/11 07:37:53;;;;;;;39.53;16.63;;;;;;;;;;5032624;28;20528;-67
2023/05/11 07:40:18;;;;;;;36.17;16.97;;;;;;;;;;5031643;28;20109;-67
2023/05/11 07:42:44;;;;;;;37.25;16.80;;;;;;;;;;5031924;28;20473;-68
2023/05/11 07:45:09;;;;;;;35.80;16.45;;;;;;;;;;5031390;28;20022;-67
2023/05/11 07:47:34;;;;;;;34.50;16.58;;;;;;;;;;5032919;28;20037;-67
2023/05/11 07:50:00;;;;;;;36.28;16.48;;;;;;;;;;5032545;28;20022;-67
2023/05/11 07:52:25;;;;;;;32.22;15.95;;;;;;;;;;5032113;28;20032;-67
2023/05/11 07:54:50;;;;;;;33.72;16.70;;;;;;;;;;5032747;28;20440;-67
2023/05/11 07:57:16;;;;;;;27.85;14.25;;;;;;;;;;5031753;28;20038;-67
2023/05/11 07:59:41;;;;;;;33.67;16.42;;;;;;;;;;5031781;28;20021;-67
2023/05/11 08:02:08;;;;;;;33.53;16.83;;;;;;;;;;5036029;28;20087;-67
2023/05/11 08:04:33;;;;;;;32.72;16.45;;;;;;;;;;5034669;28;20115;-67
2023/05/11 08:06:59;;;;;;;32.42;15.70;;;;;;;;;;5035874;28;20420;-67
2023/05/11 08:09:24;;;;;;;36.10;16.83;;;;;;;;;;5035831;28;20021;-67
2023/05/11 08:11:50;;;;;;;31.98;15.73;;;;;;;;;;5034652;28;20466;-67
2023/05/11 08:14:15;;;;;;;38.33;18.10;;;;;;;;;;5036127;28;20029;-67
2023/05/11 08:16:41;;;;;;;34.70;17.05;;;;;;;;;;5035751;28;20029;-67
2023/05/11 08:19:07;;;;;;;38.38;17.48;;;;;;;;;;5043660;28;20027;-67
2023/05/11 08:21:32;;;;;;;38.83;18.42;;;;;;;;;;5046121;28;20026;-67
2023/05/11 08:23:57;;;;;;;38.17;18.33;;;;;;;;;;5035648;28;20045;-67
2023/05/11 08:26:23;;;;;;;39.15;18.98;;;;;;;;;;5034810;28;20017;-67
2023/05/11 08:28:48;;;;;;;37.80;18.27;;;;;;;;;;5035558;28;20022;-67
2023/05/11 08:31:13;;;;;;;30.35;15.82;;;;;;;;;;5035723;28;20025;-67
2023/05/11 08:33:39;;;;;;;37.28;16.98;;;;;;;;;;5035076;28;20417;-67
2023/05/11 08:36:05;;;;;;;49.45;19.38;;;;;;;;;;5035761;28;20484;-67
2023/05/11 08:38:30;;;;;;;34.03;17.15;;;;;;;;;;5035353;28;20423;-67
2023/05/11 08:40:55;;;;;;;33.40;17.65;;;;;;;;;;5034307;28;20068;-67
2023/05/11 08:43:21;;;;;;;32.92;16.13;;;;;;;;;;5035595;28;20025;-67
2023/05/11 08:45:49;;;;;;;25.63;14.32;;;;;;;;;;5035490;28;20052;-67
2023/05/11 08:48:16;;;;;;;28.65;14.52;;;;;;;;;;5035591;28;20080;-68
2023/05/11 08:50:43;;;;;;;28.58;15.32;;;;;;;;;;5033693;28;20025;-67
2023/05/11 08:53:08;;;;;;;30.17;15.88;;;;;;;;;;5035520;28;20041;-67
2023/05/11 08:55:34;;;;;;;24.15;12.80;;;;;;;;;;5034405;28;20539;-67
2023/05/11 08:58:00;;;;;;;26.50;14.18;;;;;;;;;;5035409;28;20044;-67
2023/05/11 09:00:27;;;;;;;25.70;14.30;;;;;;;;;;5035063;28;20432;-67
2023/05/11 09:02:53;;;;;;;27.00;14.15;;;;;;;;;;5033618;28;20474;-67
2023/05/11 09:05:18;;;;;;;25.20;13.50;;;;;;;;;;5034598;28;20060;-67
2023/05/11 09:07:46;;;;;;;25.75;13.77;;;;;;;;;;5035195;28;20486;-67
2023/05/11 09:10:12;;;;;;;24.58;13.15;;;;;;;;;;5033853;28;20386;-67
2023/05/11 09:12:37;;;;;;;24.80;13.70;;;;;;;;;;5030894;28;20022;-67
2023/05/11 09:15:03;;;;;;;23.20;12.95;;;;;;;;;;5034994;28;20543;-67
2023/05/11 09:17:28;;;;;;;25.38;13.80;;;;;;;;;;5034662;28;20017;-67
2023/05/11 09:19:58;;;;;;;24.88;13.52;;;;;;;;;;5034950;28;20037;-67
2023/05/11 09:22:23;;;;;;;26.40;13.93;;;;;;;;;;5033811;28;20028;-67
2023/05/11 09:24:49;;;;;;;24.85;14.00;;;;;;;;;;5033672;28;20466;-67
2023/05/11 09:27:14;;;;;;;25.08;13.85;;;;;;;;;;5034848;28;20053;-67
2023/05/11 09:29:39;;;;;;;22.85;13.50;;;;;;;;;;5034858;28;20026;-67
2023/05/11 09:32:05;;;;;;;24.80;13.73;;;;;;;;;;5033814;28;20033;-67
2023/05/11 09:34:30;;;;;;;24.63;13.93;;;;;;;;;;5014634;28;20129;-67
2023/05/11 09:36:56;;;;;;;21.30;12.65;;;;;;;;;;5019484;28;20033;-67
2023/05/11 09:39:34;;;;;;;24.25;13.57;;;;;;;;;;5047288;28;20059;-67
2023/05/11 09:42:19;;;;;;;24.13;12.70;;;;;;;;;;5033610;28;20099;-67
2023/05/11 09:44:45;;;;;;;23.70;13.35;;;;;;;;;;5032878;28;20493;-68
2023/05/11 09:47:11;;;;;;;22.88;12.48;;;;;;;;;;5034269;28;20017;-67
2023/05/11 09:49:38;;;;;;;21.70;12.45;;;;;;;;;;5032879;28;20027;-67
2023/05/11 09:52:03;;;;;;;22.65;13.05;;;;;;;;;;5033921;28;20100;-67
2023/05/11 09:54:28;;;;;;;22.75;13.70;;;;;;;;;;5034063;28;20063;-67
2023/05/11 09:56:55;;;;;;;24.33;14.23;;;;;;;;;;5032780;28;20100;-67
2023/05/11 09:59:50;;;;;;;23.52;12.88;;;;;;;;;;5033878;28;20053;-67
2023/05/11 10:02:22;;;;;;;22.52;12.50;;;;;;;;;;4974359;28;20054;-68
2023/05/11 10:04:49;;;;;;;22.98;12.40;;;;;;;;;;4972504;28;20546;-68
2023/05/11 10:07:25;;;;;;;24.05;12.32;;;;;;;;;;4972882;28;20446;-68
2023/05/11 10:09:52;;;;;;;19.88;11.55;;;;;;;;;;4972864;28;20041;-68
2023/05/11 10:12:20;;;;;;;20.65;12.57;;;;;;;;;;4970951;28;20069;-68
2023/05/11 10:14:45;;;;;;;21.00;11.73;;;;;;;;;;4972777;28;20110;-67
2023/05/11 10:17:11;;;;;;;21.17;10.55;;;;;;;;;;4975106;28;20045;-68
2023/05/11 10:19:37;;;;;;;20.45;11.27;;;;;;;;;;4972678;28;20551;-67
2023/05/11 10:22:04;;;;;;;20.25;11.15;;;;;;;;;;4971886;28;20102;-68
2023/05/11 10:24:30;;;;;;;21.98;11.48;;;;;;;;;;4972189;28;20093;-67
2023/05/11 10:26:56;;;;;;;22.02;11.35;;;;;;;;;;4971687;28;20035;-68
2023/05/11 10:29:21;;;;;;;20.75;10.57;;;;;;;;;;4972605;28;20022;-68
2023/05/11 10:31:47;;;;;;;16.58;9.70;;;;;;;;;;4971697;28;20034;-68
2023/05/11 10:34:13;;;;;;;16.08;8.75;;;;;;;;;;4980280;28;20035;-68
2023/05/11 10:36:38;;;;;;;18.83;10.07;;;;;;;;;;4972680;28;20514;-68
2023/05/11 10:39:03;;;;;;;16.15;9.68;;;;;;;;;;5013465;28;20033;-67
2023/05/11 10:41:47;;;;;;;18.55;10.10;;;;;;;;;;5032395;28;20045;-68
2023/05/11 10:44:31;;;;;;;20.92;10.35;;;;;;;;;;5033162;28;20079;-68
2023/05/11 10:47:17;;;;;;;17.40;9.48;;;;;;;;;;5013383;28;20117;-68
2023/05/11 10:50:01;;;;;;;15.13;8.95;;;;;;;;;;5013434;28;20097;-67
2023/05/11 10:53:02;;;;;;;16.13;8.68;;;;;;;;;;5013763;28;20441;-68
2023/05/11 10:55:47;;;;;;;14.00;9.02;;;;;;;;;;4993836;28;20529;-68
2023/05/11 10:58:14;;;;;;;14.30;8.57;;;;;;;;;;5000939;28;20465;-68
2023/05/11 11:01:10;;;;;;;14.18;8.52;;;;;;;;;;5010409;28;20025;-68
2023/05/11 11:03:35;;;;;;;15.00;8.35;;;;;;;;;;5004650;28;20056;-67
2023/05/11 11:06:01;;;;;;;15.90;9.00;;;;;;;;;;4992246;28;20101;-67
2023/05/11 11:08:27;;;;;;;14.40;9.50;;;;;;;;;;5004663;28;20425;-68
2023/05/11 11:10:52;;;;;;;18.17;9.40;;;;;;;;;;5010075;28;20037;-68
2023/05/11 11:13:19;;;;;;;17.67;9.80;;;;;;;;;;5010641;28;20033;-68
2023/05/11 11:16:46;;;;;;;14.63;8.35;;;;;;;;;;5011115;28;20368;-68
2023/05/11 11:19:23;;;;;;;12.02;7.70;;;;;;;;;;5008172;28;20037;-68
2023/05/11 11:21:48;;;;;;;12.05;7.40;;;;;;;;;;5009976;28;20026;-68
2023/05/11 11:24:40;;;;;;;10.48;6.75;;;;;;;;;;5010933;28;20437;-68
2023/05/11 11:27:06;;;;;;;12.48;7.53;;;;;;;;;;5009966;28;20065;-67
2023/05/11 11:29:32;;;;;;;10.32;6.22;;;;;;;;;;4990805;28;20062;-67
2023/05/11 11:32:33;;;;;;;8.80;5.30;;;;;;;;;;4987487;28;20027;-68
2023/05/11 11:34:58;;;;;;;10.55;5.40;;;;;;;;;;4952789;28;20563;-68
2023/05/11 11:37:24;;;;;;;11.07;5.45;;;;;;;;;;4955882;29;20106;-68
2023/05/11 11:39:49;;;;;;;9.82;5.70;;;;;;;;;;4955511;29;20024;-67
2023/05/11 11:42:31;;;;;;;12.00;5.30;;;;;;;;;;4954750;29;20388;-67
2023/05/11 11:45:16;;;;;;;10.23;5.80;;;;;;;;;;4956187;29;20027;-67
2023/05/11 11:48:01;;;;;;;10.80;5.35;;;;;;;;;;4960764;28;20045;-68
2023/05/11 11:50:27;;;;;;;8.68;5.20;;;;;;;;;;4973778;28;20038;-68
2023/05/11 11:52:52;;;;;;;9.55;5.30;;;;;;;;;;4955629;29;20030;-68
2023/05/11 11:55:38;;;;;;;9.73;5.85;;;;;;;;;;4956074;29;20567;-68
2023/05/11 11:58:04;;;;;;;10.68;6.10;;;;;;;;;;4955413;29;20089;-68
2023/05/11 12:00:29;;;;;;;13.68;7.90;;;;;;;;;;4938864;29;20150;-67
2023/05/11 12:02:55;;;;;;;11.57;7.15;;;;;;;;;;4955593;29;20114;-68
2023/05/11 12:05:22;;;;;;;11.07;7.05;;;;;;;;;;4971838;28;20046;-68
2023/05/11 12:07:50;;;;;;;10.82;6.80;;;;;;;;;;4976467;28;20063;-67
2023/05/11 12:10:16;;;;;;;12.85;8.48;;;;;;;;;;5016466;28;20363;-68
2023/05/11 12:12:45;;;;;;;13.75;8.52;;;;;;;;;;5015418;28;20382;-68
2023/05/11 12:15:21;;;;;;;12.73;8.27;;;;;;;;;;5016133;28;20386;-67
2023/05/11 12:17:46;;;;;;;14.27;9.20;;;;;;;;;;5016059;28;20116;-67
2023/05/11 12:20:16;;;;;;;17.48;11.40;;;;;;;;;;5016226;28;20054;-68
2023/05/11 12:22:43;;;;;;;20.45;12.10;;;;;;;;;;5015266;28;20021;-68
2023/05/11 12:25:11;;;;;;;17.75;12.10;;;;;;;;;;5014582;28;20033;-68
2023/05/11 12:27:44;;;;;;;19.65;12.48;;;;;;;;;;5015938;28;20030;-68
2023/05/11 12:30:17;;;;;;;19.63;12.82;;;;;;;;;;5016198;28;20385;-67
2023/05/11 12:32:42;;;;;;;18.50;13.05;;;;;;;;;;5016120;28;20021;-68
2023/05/11 12:35:08;;;;;;;22.75;13.40;;;;;;;;;;5013275;28;20552;-67
2023/05/11 12:37:33;;;;;;;21.85;13.55;;;;;;;;;;5015929;28;20025;-68
2023/05/11 12:39:59;;;;;;;20.23;13.82;;;;;;;;;;5015977;28;20022;-68
2023/05/11 12:42:24;;;;;;;21.30;13.27;;;;;;;;;;5014495;28;20508;-68
2023/05/11 12:44:50;;;;;;;18.88;13.55;;;;;;;;;;5015756;28;20083;-68
2023/05/11 12:47:15;;;;;;;19.42;13.82;;;;;;;;;;5014767;28;20394;-68
2023/05/11 12:49:42;;;;;;;17.75;13.32;;;;;;;;;;5017014;28;20152;-68
2023/05/11 12:52:09;;;;;;;18.10;13.05;;;;;;;;;;5035481;28;20100;-68
2023/05/11 12:54:36;;;;;;;20.00;14.00;;;;;;;;;;5035474;28;20410;-68
2023/05/11 12:57:02;;;;;;;18.15;12.90;;;;;;;;;;5016100;28;20026;-68
2023/05/11 12:59:36;;;;;;;22.10;14.45;;;;;;;;;;5014544;28;20121;-68
2023/05/11 13:02:27;;;;;;;19.85;15.02;;;;;;;;;;5014274;28;20034;-68
2023/05/11 13:04:53;;;;;;;19.10;13.80;;;;;;;;;;5027452;28;20489;-68
2023/05/11 13:07:25;;;;;;;16.98;13.30;;;;;;;;;;5034916;28;20110;-68
2023/05/11 13:09:58;;;;;;;17.30;14.40;;;;;;;;;;5029077;28;20485;-68
2023/05/11 13:12:24;;;;;;;17.98;13.73;;;;;;;;;;5034191;28;20021;-68
2023/05/11 13:15:02;;;;;;;18.52;13.32;;;;;;;;;;5034990;28;20488;-68
2023/05/11 13:17:31;;;;;;;18.60;14.18;;;;;;;;;;5034999;28;20026;-68
2023/05/11 13:19:56;;;;;;;17.85;13.63;;;;;;;;;;5033982;28;20040;-68
2023/05/11 13:22:22;;;;;;;16.85;13.70;;;;;;;;;;5034540;28;20104;-68
2023/05/11 13:24:47;;;;;;;19.10;14.48;;;;;;;;;;5033707;28;20033;-68
2023/05/11 13:27:12;;;;;;;18.50;12.63;;;;;;;;;;5034472;28;20032;-68
2023/05/11 13:29:38;;;;;;;16.58;12.75;;;;;;;;;;5034622;28;20100;-68
2023/05/11 13:32:03;;;;;;;15.63;12.23;;;;;;;;;;5034332;28;20037;-68
2023/05/11 13:34:28;;;;;;;15.35;11.30;;;;;;;;;;5031610;28;20049;-68
2023/05/11 13:36:54;;;;;;;15.55;11.32;;;;;;;;;;5034595;28;20079;-68
2023/05/11 13:39:19;;;;;;;14.60;11.27;;;;;;;;;;5032866;28;20385;-68
2023/05/11 13:41:45;;;;;;;15.70;11.38;;;;;;;;;;5034157;28;20026;-68
2023/05/11 13:44:10;;;;;;;14.63;10.52;;;;;;;;;;5034089;28;20030;-68
2023/05/11 13:46:35;;;;;;;17.80;10.95;;;;;;;;;;5033192;28;20025;-68
2023/05/11 13:49:02;;;;;;;16.08;11.25;;;;;;;;;;5034172;28;20037;-68
2023/05/11 13:51:27;;;;;;;14.75;10.48;;;;;;;;;;5034981;28;20377;-68
2023/05/11 13:53:53;;;;;;;15.95;11.13;;;;;;;;;;5034201;28;20021;-68
2023/05/11 13:56:20;;;;;;;15.25;10.98;;;;;;;;;;5032977;28;20466;-68
2023/05/11 13:58:45;;;;;;;18.67;13.00;;;;;;;;;;5033520;28;20030;-68
2023/05/11 14:01:10;;;;;;;17.48;12.43;;;;;;;;;;5033907;28;20022;-68
2023/05/11 14:03:36;;;;;;;17.55;12.70;;;;;;;;;;5033444;28;20044;-68
2023/05/11 14:06:01;;;;;;;19.77;12.70;;;;;;;;;;5032804;28;20044;-68
2023/05/11 14:08:26;;;;;;;17.42;12.50;;;;;;;;;;5033161;28;20026;-68
2023/05/11 14:10:52;;;;;;;19.83;13.85;;;;;;;;;;5032681;28;20083;-68
2023/05/11 14:13:17;;;;;;;17.08;12.90;;;;;;;;;;5032925;28;20030;-68
2023/05/11 14:15:43;;;;;;;21.67;14.30;;;;;;;;;;5033023;28;20025;-69
2023/05/11 14:18:08;;;;;;;18.77;12.73;;;;;;;;;;5033880;28;20026;-67
2023/05/11 14:20:36;;;;;;;18.55;12.25;;;;;;;;;;5033795;28;20461;-67
2023/05/11 14:23:01;;;;;;;17.67;12.48;;;;;;;;;;5032908;28;20029;-67